createdAt,value
2023-05-22T00:01:46.837Z,9.63
2023-05-22T00:04:52.304Z,10.90
2023-05-22T00:07:57.594Z,8.60
2023-05-22T00:11:02.779Z,5.10
2023-05-22T00:14:09.284Z,5.40
2023-05-22T00:17:15.137Z,2.40
2023-05-22T00:20:20.319Z,4.10
2023-05-22T00:23:26.020Z,5.93
2023-05-22T00:26:31.070Z,4.82
2023-05-22T00:29:37.501Z,2.95
2023-05-22T00:32:43.014Z,6.38
2023-05-22T00:35:48.155Z,5.68
2023-05-22T00:38:53.168Z,6.55
2023-05-22T00:41:58.173Z,3.28
2023-05-22T00:45:05.165Z,3.80
2023-05-22T00:48:13.893Z,6.68
2023-05-22T00:51:19.018Z,3.47
2023-05-22T00:54:24.100Z,5.47
2023-05-22T00:57:29.854Z,3.90
2023-05-22T01:00:36.993Z,8.10
2023-05-22T01:03:46.013Z,10.15
2023-05-22T01:06:51.618Z,5.45
2023-05-22T01:09:56.718Z,5.15
2023-05-22T01:13:06.489Z,6.47
2023-05-22T01:16:22.114Z,8.63
2023-05-22T01:19:42.248Z,14.18
2023-05-22T01:23:17.515Z,23.17
2023-05-22T01:26:56.608Z,6.15
2023-05-22T01:30:19.414Z,9.07
2023-05-22T01:33:27.193Z,8.98
2023-05-22T01:36:35.221Z,3.67
2023-05-22T01:39:40.570Z,8.75
2023-05-22T01:42:47.678Z,9.18
2023-05-22T01:45:52.786Z,5.10
2023-05-22T01:48:59.294Z,4.30
2023-05-22T01:52:12.314Z,7.00
2023-05-22T01:55:21.834Z,9.57
2023-05-22T01:58:33.030Z,7.82
2023-05-22T02:01:39.314Z,17.45
2023-05-22T02:04:50.790Z,16.58
2023-05-22T02:07:59.173Z,3.28
2023-05-22T02:11:05.299Z,6.43
2023-05-22T02:14:12.289Z,10.23
2023-05-22T02:17:18.801Z,8.30
2023-05-22T02:20:25.167Z,10.48
2023-05-22T02:23:30.628Z,16.92
2023-05-22T02:26:35.833Z,10.40
2023-05-22T02:29:41.938Z,7.93
2023-05-22T02:32:48.693Z,3.95
2023-05-22T02:35:54.889Z,4.13
2023-05-22T02:39:00.331Z,4.82
2023-05-22T02:42:05.803Z,3.70
2023-05-22T02:45:11.625Z,10.00
2023-05-22T02:48:16.903Z,10.30
2023-05-22T02:51:23.601Z,12.98
2023-05-22T02:54:28.734Z,19.25
2023-05-22T02:57:33.735Z,20.83
2023-05-22T03:00:39.163Z,17.55
2023-05-22T03:03:44.583Z,3.78
2023-05-22T03:06:51.236Z,8.38
2023-05-22T03:09:56.470Z,3.90
2023-05-22T03:13:01.552Z,3.25
2023-05-22T03:16:08.422Z,3.97
2023-05-22T03:19:17.858Z,4.88
2023-05-22T03:22:24.381Z,3.33
2023-05-22T03:25:29.488Z,3.88
2023-05-22T03:28:34.785Z,3.17
2023-05-22T03:31:40.081Z,3.28
2023-05-22T03:34:48.788Z,4.97
2023-05-22T03:37:55.282Z,4.97
2023-05-22T03:41:00.658Z,7.68
2023-05-22T03:44:05.926Z,10.48
2023-05-22T03:47:14.030Z,5.05
2023-05-22T03:50:19.091Z,3.22
2023-05-22T03:53:25.771Z,2.90
2023-05-22T03:56:31.532Z,3.22
2023-05-22T03:59:36.517Z,3.45
2023-05-22T04:02:45.313Z,3.13
2023-05-22T04:05:51.471Z,4.68
2023-05-22T04:08:58.940Z,4.53
2023-05-22T04:12:04.349Z,5.28
2023-05-22T04:15:10.540Z,4.88
2023-05-22T04:18:15.783Z,4.55
2023-05-22T04:21:20.888Z,2.95
2023-05-22T04:24:27.820Z,9.18
2023-05-22T04:27:33.293Z,5.75
2023-05-22T04:30:40.413Z,3.42
2023-05-22T04:33:48.394Z,12.13
2023-05-22T04:36:53.450Z,7.70
2023-05-22T04:40:02.913Z,9.20
2023-05-22T04:43:08.598Z,3.47
2023-05-22T04:46:14.431Z,12.63
2023-05-22T04:49:19.529Z,5.82
2023-05-22T04:52:24.577Z,9.43
2023-05-22T04:55:34.288Z,7.78
2023-05-22T04:58:40.360Z,12.55
2023-05-22T05:01:45.609Z,11.77
2023-05-22T05:04:50.780Z,14.15
2023-05-22T05:07:55.886Z,11.55
2023-05-22T05:11:03.180Z,10.02
2023-05-22T05:14:08.186Z,8.93
2023-05-22T05:17:13.951Z,14.68
2023-05-22T05:20:19.053Z,15.05
2023-05-22T05:23:24.111Z,12.65
2023-05-22T05:26:30.624Z,10.07
2023-05-22T05:29:36.957Z,12.98
2023-05-22T05:32:48.436Z,7.90
2023-05-22T05:36:12.370Z,5.55
2023-05-22T05:39:18.225Z,4.50
2023-05-22T05:42:24.882Z,7.95
2023-05-22T05:45:32.838Z,6.30
2023-05-22T05:48:38.099Z,8.40
2023-05-22T05:51:43.617Z,4.53
2023-05-22T05:54:50.060Z,8.80
2023-05-22T05:58:00.179Z,5.85
2023-05-22T06:01:16.851Z,2.88
2023-05-22T06:04:21.850Z,10.50
2023-05-22T06:07:29.758Z,4.43
2023-05-22T06:10:34.831Z,7.40
2023-05-22T06:13:51.397Z,6.75
2023-05-22T06:16:56.705Z,5.00
2023-05-22T06:20:02.093Z,4.22
2023-05-22T06:23:08.116Z,2.45
2023-05-22T06:26:14.326Z,5.75
2023-05-22T06:29:22.856Z,12.90
2023-05-22T06:32:29.495Z,3.83
2023-05-22T06:35:34.860Z,13.80
2023-05-22T06:38:40.810Z,9.23
2023-05-22T06:41:58.402Z,9.82
2023-05-22T06:45:05.492Z,2.42
2023-05-22T06:48:20.124Z,9.25
2023-05-22T06:51:45.688Z,2.33
2023-05-22T06:54:52.390Z,6.22
2023-05-22T06:57:57.546Z,2.10
2023-05-22T07:01:05.961Z,7.75
2023-05-22T07:04:17.219Z,3.67
2023-05-22T07:07:33.060Z,5.35
2023-05-22T07:10:38.398Z,2.10
2023-05-22T07:13:43.576Z,2.35
2023-05-22T07:16:50.358Z,3.50
2023-05-22T07:20:01.806Z,5.68
2023-05-22T07:23:07.711Z,2.10
2023-05-22T07:26:14.660Z,2.67
2023-05-22T07:29:26.881Z,1.60
2023-05-22T07:32:34.760Z,13.27
2023-05-22T07:35:41.311Z,6.07
2023-05-22T07:38:47.332Z,4.85
2023-05-22T07:41:54.589Z,4.03
2023-05-22T07:45:02.238Z,2.40
2023-05-22T07:48:09.134Z,6.65
2023-05-22T07:51:15.441Z,4.40
2023-05-22T07:54:20.712Z,6.10
2023-05-22T07:57:29.918Z,3.50
2023-05-22T08:00:40.595Z,2.25
2023-05-22T08:03:47.197Z,3.33
2023-05-22T08:06:52.463Z,7.50
2023-05-22T08:09:57.499Z,4.30
2023-05-22T08:13:06.273Z,5.05
2023-05-22T08:16:12.936Z,9.18
2023-05-22T08:19:19.639Z,2.33
2023-05-22T08:22:24.813Z,8.23
2023-05-22T08:25:30.052Z,5.70
2023-05-22T08:28:35.795Z,5.43
2023-05-22T08:31:41.223Z,4.35
2023-05-22T08:34:48.031Z,27.35
2023-05-22T08:37:53.091Z,2.83
2023-05-22T08:40:59.003Z,6.57
2023-05-22T08:44:06.020Z,9.45
2023-05-22T08:47:15.232Z,8.70
2023-05-22T08:50:22.308Z,3.65
2023-05-22T08:53:30.087Z,2.72
2023-05-22T08:56:39.686Z,7.03
2023-05-22T08:59:48.134Z,3.42
2023-05-22T09:02:55.877Z,4.13
2023-05-22T09:06:03.061Z,6.38
2023-05-22T09:09:08.239Z,9.60
2023-05-22T09:12:14.241Z,2.33
2023-05-22T09:15:21.321Z,4.57
2023-05-22T09:18:29.770Z,3.50
2023-05-22T09:21:38.602Z,7.57
2023-05-22T09:24:44.959Z,2.78
2023-05-22T09:27:50.433Z,5.70
2023-05-22T09:30:56.565Z,2.38
2023-05-22T09:34:01.693Z,6.82
2023-05-22T09:37:08.255Z,3.30
2023-05-22T09:40:15.045Z,4.78
2023-05-22T09:43:20.328Z,1.80
2023-05-22T09:46:25.579Z,5.47
2023-05-22T09:49:30.597Z,14.48
2023-05-22T09:52:37.796Z,2.63
2023-05-22T09:55:43.881Z,2.20
2023-05-22T09:58:49.564Z,2.78
2023-05-22T10:01:55.430Z,3.83
2023-05-22T10:05:02.590Z,5.85
2023-05-22T10:08:13.061Z,3.05
2023-05-22T10:11:18.260Z,3.33
2023-05-22T10:14:23.915Z,3.97
2023-05-22T10:17:29.301Z,3.15
2023-05-22T10:20:34.384Z,6.22
2023-05-22T10:23:41.240Z,4.78
2023-05-22T10:26:46.754Z,2.53
2023-05-22T10:29:54.463Z,3.67
2023-05-22T10:33:04.741Z,5.20
2023-05-22T10:36:11.738Z,3.22
2023-05-22T10:39:31.609Z,6.78
2023-05-22T10:42:38.381Z,8.38
2023-05-22T10:45:45.294Z,7.85
2023-05-22T10:48:51.796Z,3.58
2023-05-22T10:52:00.300Z,2.70
2023-05-22T10:55:10.259Z,4.20
2023-05-22T10:58:15.519Z,4.53
2023-05-22T11:01:21.739Z,2.30
2023-05-22T11:04:31.536Z,3.88
2023-05-22T11:07:42.574Z,3.08
2023-05-22T11:10:55.941Z,2.17
2023-05-22T11:14:04.560Z,6.47
2023-05-22T11:17:18.625Z,2.00
2023-05-22T11:20:24.930Z,2.45
2023-05-22T11:23:37.163Z,2.10
2023-05-22T11:26:46.060Z,3.45
2023-05-22T11:29:52.194Z,2.40
2023-05-22T11:32:58.382Z,13.13
2023-05-22T11:36:04.193Z,5.20
2023-05-22T11:39:09.720Z,4.65
2023-05-22T11:42:16.590Z,2.28
2023-05-22T11:45:21.895Z,2.40
2023-05-22T11:48:27.208Z,11.68
2023-05-22T11:51:32.453Z,4.65
2023-05-22T11:54:38.933Z,3.40
2023-05-22T11:57:47.305Z,2.67
2023-05-22T12:00:52.656Z,3.25
2023-05-22T12:03:58.020Z,5.07
2023-05-22T12:07:03.629Z,4.30
2023-05-22T12:10:09.353Z,2.47
2023-05-22T12:13:22.969Z,8.13
2023-05-22T12:16:28.210Z,3.03
2023-05-22T12:19:33.773Z,3.03
2023-05-22T12:22:44.282Z,3.95
2023-05-22T12:25:49.411Z,6.88
2023-05-22T12:28:56.473Z,4.75
2023-05-22T12:32:04.150Z,8.35
2023-05-22T12:35:17.300Z,2.60
2023-05-22T12:38:23.400Z,8.73
2023-05-22T12:41:28.580Z,6.80
2023-05-22T12:44:35.325Z,2.50
2023-05-22T12:47:40.413Z,5.50
2023-05-22T12:50:46.321Z,2.90
2023-05-22T12:53:51.467Z,4.07
2023-05-22T12:56:56.706Z,14.27
2023-05-22T13:00:03.191Z,6.72
2023-05-22T13:03:08.978Z,6.60
2023-05-22T13:06:14.420Z,4.55
2023-05-22T13:09:21.260Z,2.80
2023-05-22T13:12:27.287Z,4.22
2023-05-22T13:15:33.741Z,3.92
2023-05-22T13:18:38.904Z,6.20
2023-05-22T13:21:44.748Z,9.73
2023-05-22T13:24:50.111Z,4.53
2023-05-22T13:27:55.230Z,4.18
2023-05-22T13:31:01.782Z,6.15
2023-05-22T13:34:07.542Z,4.03
2023-05-22T13:37:13.423Z,4.60
2023-05-22T13:40:18.704Z,2.90
2023-05-22T13:43:23.873Z,6.32
2023-05-22T13:46:30.632Z,2.28
2023-05-22T13:49:35.780Z,5.82
2023-05-22T13:52:41.075Z,2.63
2023-05-22T13:55:46.673Z,3.10
2023-05-22T13:58:51.741Z,4.93
2023-05-22T14:01:58.297Z,5.47
2023-05-22T14:05:03.660Z,6.60
2023-05-22T14:08:09.038Z,6.13
2023-05-22T14:11:14.371Z,4.65
2023-05-22T14:14:23.866Z,2.47
2023-05-22T14:17:30.772Z,4.93
2023-05-22T14:20:36.103Z,3.75
2023-05-22T14:23:41.236Z,2.78
2023-05-22T14:26:46.302Z,2.30
2023-05-22T14:29:51.640Z,6.60
2023-05-22T14:32:58.286Z,6.95
2023-05-22T14:36:03.586Z,8.32
2023-05-22T14:39:08.815Z,5.20
2023-05-22T14:42:14.450Z,3.40
2023-05-22T14:45:19.585Z,2.90
2023-05-22T14:48:26.670Z,7.85
2023-05-22T14:51:32.091Z,2.20
2023-05-22T14:54:37.145Z,2.53
2023-05-22T14:57:42.324Z,6.45
2023-05-22T15:00:48.299Z,9.60
2023-05-22T15:03:54.982Z,2.55
2023-05-22T15:07:00.307Z,7.50
2023-05-22T15:10:05.984Z,5.00
2023-05-22T15:13:14.021Z,4.82
2023-05-22T15:16:19.243Z,7.20
2023-05-22T15:19:26.349Z,3.90
2023-05-22T15:22:31.554Z,2.15
2023-05-22T15:25:36.854Z,5.88
2023-05-22T15:28:42.335Z,6.53
2023-05-22T15:31:47.565Z,4.43
2023-05-22T15:34:54.243Z,4.32
2023-05-22T15:37:59.287Z,3.03
2023-05-22T15:41:04.585Z,7.25
2023-05-22T15:44:12.130Z,8.35
2023-05-22T15:47:17.534Z,2.30
2023-05-22T15:50:24.350Z,3.80
2023-05-22T15:53:29.502Z,15.00
2023-05-22T15:56:34.526Z,6.70
2023-05-22T15:59:39.745Z,12.00
2023-05-22T16:02:45.026Z,7.82
2023-05-22T16:05:51.586Z,10.40
2023-05-22T16:08:56.732Z,9.35
2023-05-22T16:12:02.014Z,10.68
2023-05-22T16:15:08.861Z,5.90
2023-05-22T16:18:14.070Z,6.85
2023-05-22T16:21:20.565Z,2.17
2023-05-22T16:24:26.171Z,9.85
2023-05-22T16:27:31.249Z,9.20
2023-05-22T16:30:36.652Z,5.47
2023-05-22T16:33:41.763Z,1.98
2023-05-22T16:36:48.356Z,6.47
2023-05-22T16:39:53.751Z,8.02
2023-05-22T16:42:58.930Z,2.15
2023-05-22T16:46:04.178Z,10.15
2023-05-22T16:49:09.436Z,2.25
2023-05-22T16:52:16.960Z,10.90
2023-05-22T16:55:22.419Z,9.13
2023-05-22T16:58:27.576Z,4.70
2023-05-22T17:01:32.999Z,3.33
2023-05-22T17:04:38.168Z,7.00
2023-05-22T17:07:44.719Z,7.03
2023-05-22T17:10:50.126Z,4.25
2023-05-22T17:13:55.510Z,7.28
2023-05-22T17:17:00.796Z,5.18
2023-05-22T17:20:07.383Z,7.00
2023-05-22T17:23:14.328Z,6.20
2023-05-22T17:26:19.505Z,7.20
2023-05-22T17:29:26.084Z,6.20
2023-05-22T17:32:33.248Z,7.88
2023-05-22T17:35:38.480Z,3.42
2023-05-22T17:38:45.078Z,2.47
2023-05-22T17:41:50.761Z,7.43
2023-05-22T17:44:56.065Z,7.22
2023-05-22T17:48:01.176Z,11.88
2023-05-22T17:51:06.813Z,5.20
2023-05-22T17:54:16.911Z,4.15
2023-05-22T17:57:22.031Z,16.60
2023-05-22T18:00:27.394Z,13.15
2023-05-22T18:03:32.831Z,15.02
2023-05-22T18:06:38.147Z,8.77
2023-05-22T18:09:44.702Z,9.48
2023-05-22T18:12:49.805Z,16.80
2023-05-22T18:15:55.785Z,16.73
2023-05-22T18:19:01.352Z,15.25
2023-05-22T18:22:06.662Z,7.45
2023-05-22T18:25:14.402Z,12.43
2023-05-22T18:28:23.366Z,13.15
2023-05-22T18:31:28.680Z,10.18
2023-05-22T18:34:35.803Z,13.27
2023-05-22T18:37:42.233Z,17.95
2023-05-22T18:40:48.926Z,29.30
2023-05-22T18:43:54.437Z,23.58
2023-05-22T18:46:59.740Z,15.95
2023-05-22T18:50:04.931Z,11.27
2023-05-22T18:53:11.237Z,12.13
2023-05-22T18:56:17.887Z,10.13
2023-05-22T18:59:23.143Z,14.35
2023-05-22T19:02:28.685Z,15.18
2023-05-22T19:05:34.043Z,15.88
2023-05-22T19:08:39.159Z,21.38
2023-05-22T19:11:45.798Z,12.55
2023-05-22T19:14:52.650Z,9.60
2023-05-22T19:17:58.077Z,13.48
2023-05-22T19:21:03.579Z,16.98
2023-05-22T19:24:08.968Z,40.15
2023-05-22T19:27:15.893Z,34.33
2023-05-22T19:30:22.064Z,49.17
2023-05-22T19:33:27.693Z,42.65
2023-05-22T19:36:32.892Z,15.95
2023-05-22T19:39:38.362Z,13.30
2023-05-22T19:42:45.048Z,11.95
2023-05-22T19:45:50.563Z,19.02
2023-05-22T19:48:56.003Z,17.73
2023-05-22T19:52:01.246Z,18.90
2023-05-22T19:55:07.252Z,15.38
2023-05-22T19:58:17.144Z,17.80
2023-05-22T20:01:22.549Z,13.23
2023-05-22T20:04:27.859Z,20.67
2023-05-22T20:07:33.240Z,22.02
2023-05-22T20:10:38.650Z,21.42
2023-05-22T20:13:45.476Z,15.57
2023-05-22T20:16:51.197Z,12.48
2023-05-22T20:19:57.693Z,9.48
2023-05-22T20:23:03.400Z,15.73
2023-05-22T20:26:08.627Z,22.35
2023-05-22T20:29:15.587Z,25.73
2023-05-22T20:32:20.867Z,19.88
2023-05-22T20:35:26.516Z,26.52
2023-05-22T20:38:34.580Z,25.30
2023-05-22T20:41:39.664Z,16.83
2023-05-22T20:44:46.303Z,24.60
2023-05-22T20:47:52.170Z,19.80
2023-05-22T20:50:57.443Z,19.95
2023-05-22T20:54:02.789Z,11.13
2023-05-22T20:57:07.959Z,14.50
2023-05-22T21:00:15.858Z,20.70
2023-05-22T21:03:22.053Z,33.88
2023-05-22T21:06:28.537Z,23.58
2023-05-22T21:09:33.680Z,27.20
2023-05-22T21:12:38.762Z,27.38
2023-05-22T21:15:45.228Z,27.85
2023-05-22T21:18:50.286Z,18.73
2023-05-22T21:21:55.500Z,23.05
2023-05-22T21:25:00.860Z,43.80
2023-05-22T21:28:07.749Z,21.30
2023-05-22T21:31:14.583Z,22.15
2023-05-22T21:34:19.678Z,28.95
2023-05-22T21:37:25.715Z,33.78
2023-05-22T21:40:30.827Z,40.92
2023-05-22T21:43:35.972Z,29.38
2023-05-22T21:46:42.554Z,37.55
2023-05-22T21:49:48.067Z,29.23
2023-05-22T21:52:53.556Z,32.38
2023-05-22T21:55:58.632Z,23.10
2023-05-22T21:59:03.759Z,36.97
2023-05-22T22:02:10.638Z,42.00
2023-05-22T22:05:18.601Z,24.95
2023-05-22T22:08:23.696Z,25.42
2023-05-22T22:11:28.885Z,24.77
2023-05-22T22:14:33.964Z,35.50
2023-05-22T22:17:40.687Z,28.88
2023-05-22T22:20:45.926Z,33.63
2023-05-22T22:23:51.320Z,23.15
2023-05-22T22:26:56.782Z,10.30
2023-05-22T22:30:02.454Z,21.30
2023-05-22T22:33:09.368Z,12.30
2023-05-22T22:36:14.537Z,8.80
2023-05-22T22:39:19.648Z,7.10
2023-05-22T22:42:24.939Z,15.60
2023-05-22T22:45:29.988Z,8.13
2023-05-22T22:48:36.654Z,10.05
2023-05-22T22:51:41.950Z,8.93
2023-05-22T22:54:47.092Z,14.43
2023-05-22T22:57:52.367Z,9.98
2023-05-22T23:00:57.733Z,12.82
2023-05-22T23:04:04.278Z,6.78
2023-05-22T23:07:09.971Z,14.00
2023-05-22T23:10:15.978Z,12.73
2023-05-22T23:13:21.209Z,7.88
2023-05-22T23:16:26.301Z,15.85
2023-05-22T23:19:33.072Z,9.98
2023-05-22T23:22:38.138Z,7.05
2023-05-22T23:25:43.366Z,8.55
2023-05-22T23:28:48.532Z,7.53
2023-05-22T23:31:54.192Z,5.55
2023-05-22T23:35:00.671Z,9.93
2023-05-22T23:38:05.959Z,7.43
2023-05-22T23:41:10.996Z,8.77
2023-05-22T23:44:16.196Z,19.05
2023-05-22T23:47:21.610Z,14.27
2023-05-22T23:50:28.280Z,5.85
2023-05-22T23:53:33.686Z,4.00
2023-05-22T23:56:39.061Z,15.02
2023-05-22T23:59:44.213Z,9.73
